Time;durP1;ratioP1;P1;durP2;ratioP2;P2;SDS_P1;SDS_P2;PMS_P1;PMS_P2;Temp;Humidity;BMP_temperature;BMP_pressure;BME280_temperature;BME280_humidity;BME280_pressure;Samples;Min_cycle;Max_cycle;Signal;HPM_P1;HPM_P2
2021/03/05 00:01:18;;;;;;;21.97;17.10;;;;;;;4.80;100.00;97866.13;5015336;28;20209;-69
2021/03/05 00:03:46;;;;;;;21.13;17.70;;;;;;;4.67;100.00;97861.94;5014337;28;20205;-69
2021/03/05 00:06:14;;;;;;;22.00;19.17;;;;;;;4.68;100.00;97865.38;5013874;28;20224;-69
2021/03/05 00:08:41;;;;;;;23.77;18.00;;;;;;;4.72;100.00;97878.13;5008600;28;20602;-70
2021/03/05 00:11:08;;;;;;;20.57;18.30;;;;;;;4.67;100.00;97861.94;5015147;28;20231;-69
2021/03/05 00:13:35;;;;;;;19.47;17.37;;;;;;;4.71;100.00;97875.59;5014550;28;20677;-68
2021/03/05 00:16:02;;;;;;;21.37;17.40;;;;;;;4.64;100.00;97877.94;5012807;28;20208;-70
2021/03/05 00:18:29;;;;;;;22.07;18.00;;;;;;;4.65;100.00;97882.22;5015557;28;20212;-69
2021/03/05 00:20:56;;;;;;;20.57;16.73;;;;;;;4.56;100.00;97885.63;5011923;28;20209;-70
2021/03/05 00:23:24;;;;;;;24.03;17.83;;;;;;;4.59;100.00;97893.25;5016737;28;20208;-70
2021/03/05 00:25:51;;;;;;;19.17;17.07;;;;;;;4.56;100.00;97889.06;5007633;28;20586;-69
2021/03/05 00:28:19;;;;;;;19.07;17.13;;;;;;;4.56;100.00;97891.69;5015471;28;20724;-70
2021/03/05 00:30:46;;;;;;;21.07;18.87;;;;;;;4.45;100.00;97899.63;5007580;28;20696;-69
2021/03/05 00:33:13;;;;;;;18.77;16.87;;;;;;;4.37;100.00;97909.94;5013175;28;20209;-70
2021/03/05 00:35:52;;;;;;;18.80;16.80;;;;;;;4.32;100.00;97905.06;5012220;28;20207;-69
2021/03/05 00:38:21;;;;;;;19.90;17.07;;;;;;;4.33;100.00;97907.53;5010440;28;20223;-70
2021/03/05 00:40:49;;;;;;;17.00;15.30;;;;;;;4.29;100.00;97921.88;5010487;28;20358;-69
2021/03/05 00:43:16;;;;;;;19.07;15.93;;;;;;;4.26;100.00;97924.75;5009410;28;20295;-70
2021/03/05 00:45:43;;;;;;;18.97;16.60;;;;;;;4.15;100.00;97928.25;5015712;28;20972;-69
2021/03/05 00:48:11;;;;;;;19.17;15.53;;;;;;;4.12;100.00;97936.38;5011105;28;20723;-70
2021/03/05 00:50:38;;;;;;;16.77;14.03;;;;;;;3.96;100.00;97928.09;5004663;28;20621;-69
2021/03/05 00:53:06;;;;;;;16.77;15.20;;;;;;;3.91;100.00;97933.69;5012465;28;20204;-68
2021/03/05 00:55:33;;;;;;;15.17;13.67;;;;;;;3.76;100.00;97931.34;5011822;28;20584;-70
2021/03/05 00:58:01;;;;;;;18.27;14.43;;;;;;;3.75;100.00;97932.31;5015460;28;20224;-70
2021/03/05 01:00:28;;;;;;;16.23;14.03;;;;;;;3.74;100.00;97929.78;5014009;28;20201;-70
2021/03/05 01:02:55;;;;;;;16.90;15.20;;;;;;;3.70;100.00;97939.72;5013456;28;20299;-69
2021/03/05 01:05:23;;;;;;;15.67;13.67;;;;;;;3.68;100.00;97940.78;5010571;28;20209;-68
2021/03/05 01:07:58;;;;;;;17.13;15.43;;;;;;;3.62;100.00;97948.16;5008131;28;20237;-69
2021/03/05 01:10:25;;;;;;;16.93;15.07;;;;;;;3.57;100.00;97954.72;5008417;28;20474;-70
2021/03/05 01:12:52;;;;;;;15.40;13.83;;;;;;;3.51;100.00;97955.19;5013522;28;20200;-69
2021/03/05 01:15:20;;;;;;;18.00;16.20;;;;;;;3.57;100.00;97954.72;5011813;28;20205;-69
2021/03/05 01:17:47;;;;;;;16.67;14.97;;;;;;;3.53;100.00;97955.91;5011818;28;20233;-69
2021/03/05 01:20:17;;;;;;;17.53;15.77;;;;;;;3.46;100.00;97963.44;5007648;28;20316;-69
2021/03/05 01:22:44;;;;;;;17.87;15.97;;;;;;;3.44;100.00;97965.34;5010916;28;20203;-70
2021/03/05 01:25:15;;;;;;;16.97;15.17;;;;;;;3.36;100.00;97968.56;5009083;28;20212;-69
2021/03/05 01:27:42;;;;;;;17.63;15.87;;;;;;;3.37;100.00;97970.22;5011347;28;20231;-69
2021/03/05 01:30:10;;;;;;;16.97;15.20;;;;;;;3.34;100.00;97970.47;5011881;28;20209;-69
2021/03/05 01:32:38;;;;;;;18.77;16.70;;;;;;;3.36;100.00;97963.31;5011340;28;20224;-69
2021/03/05 01:35:09;;;;;;;19.27;16.57;;;;;;;3.30;100.00;97966.41;5011230;28;20201;-69
2021/03/05 01:37:36;;;;;;;19.87;17.13;;;;;;;3.31;100.00;97974.13;5010669;28;20237;-69
2021/03/05 01:40:05;;;;;;;21.53;17.87;;;;;;;3.34;100.00;97973.06;5009596;28;20553;-68
2021/03/05 01:42:32;;;;;;;20.87;17.53;;;;;;;3.35;100.00;97969.50;5020026;28;20215;-69
2021/03/05 01:44:59;;;;;;;20.83;18.63;;;;;;;3.34;100.00;97970.47;5008312;28;20215;-68
2021/03/05 01:47:27;;;;;;;21.27;18.97;;;;;;;3.27;100.00;97966.66;5018673;28;20228;-69
2021/03/05 01:49:56;;;;;;;21.27;17.53;;;;;;;3.26;100.00;97970.22;5013429;28;20212;-69
2021/03/05 01:52:23;;;;;;;22.80;17.10;;;;;;;3.15;100.00;97977.09;5016880;28;20232;-69
2021/03/05 01:54:51;;;;;;;18.30;15.97;;;;;;;3.16;100.00;97978.75;5012635;28;20208;-69
2021/03/05 01:57:18;;;;;;;18.00;15.97;;;;;;;3.14;100.00;97975.44;5007371;28;20234;-68
2021/03/05 01:59:45;;;;;;;19.53;14.80;;;;;;;3.07;100.00;97989.13;5014195;28;20209;-68
2021/03/05 02:02:12;;;;;;;16.17;14.33;;;;;;;3.03;100.00;97985.91;5015196;28;20208;-68
2021/03/05 02:04:39;;;;;;;16.23;14.53;;;;;;;2.98;100.00;97990.66;5012338;28;20708;-68
2021/03/05 02:07:08;;;;;;;14.97;12.70;;;;;;;2.96;100.00;97995.16;5011992;28;20225;-68
2021/03/05 02:09:35;;;;;;;15.47;12.40;;;;;;;2.98;100.00;97994.09;5013014;28;20209;-68
2021/03/05 02:12:03;;;;;;;14.33;12.83;;;;;;;2.97;100.00;97996.84;5016395;28;20236;-68
2021/03/05 02:14:31;;;;;;;13.23;11.83;;;;;;;2.78;100.00;97998.19;5011894;28;20572;-67
2021/03/05 02:17:05;;;;;;;11.60;10.40;;;;;;;2.67;100.00;97998.19;5015085;28;20229;-68
2021/03/05 02:20:06;;;;;;;10.20;9.27;;;;;;;2.54;100.00;98016.56;5016733;28;20259;-68
2021/03/05 02:23:04;;;;;;;9.80;8.87;;;;;;;2.45;100.00;98010.22;4991367;28;20345;-68
2021/03/05 02:25:48;;;;;;;9.57;8.67;;;;;;;2.43;100.00;98020.81;5013904;28;20566;-68
2021/03/05 02:28:35;;;;;;;9.00;8.07;;;;;;;2.30;100.00;98012.19;5015096;28;20680;-68
2021/03/05 02:31:19;;;;;;;8.67;7.87;;;;;;;2.22;100.00;98017.97;5004765;28;20798;-68
2021/03/05 02:33:51;;;;;;;8.50;7.70;;;;;;;2.08;100.00;98020.72;5018360;28;20212;-68
2021/03/05 02:36:21;;;;;;;8.53;7.67;;;;;;;2.03;100.00;98026.28;5008924;28;20410;-67
2021/03/05 02:38:59;;;;;;;9.20;8.03;;;;;;;2.01;100.00;98030.78;5012817;28;20204;-68
2021/03/05 02:41:29;;;;;;;8.67;7.77;;;;;;;2.03;100.00;98036.75;5014758;28;20208;-68
2021/03/05 02:43:58;;;;;;;7.80;7.07;;;;;;;1.94;100.00;98040.84;5013686;28;20205;-68
2021/03/05 02:46:27;;;;;;;6.93;6.30;;;;;;;1.76;100.00;98047.38;5007933;28;20713;-68
2021/03/05 02:48:58;;;;;;;7.27;6.57;;;;;;;1.71;100.00;98042.44;5010095;28;20208;-68
2021/03/05 02:51:27;;;;;;;6.97;6.30;;;;;;;1.70;100.00;98052.06;5005719;28;20645;-68
2021/03/05 02:53:56;;;;;;;6.60;6.10;;;;;;;1.43;100.00;98058.25;5004340;28;20499;-68
2021/03/05 02:56:24;;;;;;;6.30;5.70;;;;;;;1.18;100.00;98066.06;5011238;28;20343;-68
2021/03/05 02:58:53;;;;;;;6.97;6.37;;;;;;;0.97;100.00;98069.19;5013007;28;20204;-68
2021/03/05 03:01:22;;;;;;;8.17;7.20;;;;;;;0.96;100.00;98085.78;5008253;28;20422;-67
2021/03/05 03:03:51;;;;;;;7.87;7.10;;;;;;;0.71;100.00;98082.97;5008543;28;20211;-69
2021/03/05 03:06:18;;;;;;;8.80;8.00;;;;;;;0.59;100.00;98077.75;5007327;28;20347;-68
2021/03/05 03:08:46;;;;;;;8.10;7.40;;;;;;;0.63;100.00;98085.25;5005703;28;20400;-69
2021/03/05 03:11:14;;;;;;;8.43;7.57;;;;;;;0.71;100.00;98089.97;5012220;28;20392;-68
2021/03/05 03:13:42;;;;;;;9.13;8.27;;;;;;;0.79;100.00;98087.69;5012008;28;20693;-68
2021/03/05 03:16:09;;;;;;;8.97;8.07;;;;;;;0.74;100.00;98089.78;5007047;28;20232;-68
2021/03/05 03:18:38;;;;;;;9.00;8.20;;;;;;;0.73;100.00;98093.31;5011445;28;20208;-68
2021/03/05 03:21:07;;;;;;;9.17;8.27;;;;;;;0.71;100.00;98098.63;5011140;28;20212;-68
2021/03/05 03:23:34;;;;;;;8.87;8.07;;;;;;;0.80;100.00;98099.81;5014040;28;20211;-69
2021/03/05 03:26:02;;;;;;;8.97;8.13;;;;;;;0.80;100.00;98099.81;5007536;28;20209;-68
2021/03/05 03:28:29;;;;;;;9.70;8.77;;;;;;;0.80;100.00;98110.25;5007210;28;20226;-69
2021/03/05 03:30:56;;;;;;;9.63;8.70;;;;;;;0.79;100.00;98111.19;5003855;28;20204;-69
2021/03/05 03:33:23;;;;;;;9.47;8.47;;;;;;;0.76;100.00;98114.00;5009473;28;20455;-69
2021/03/05 03:35:51;;;;;;;9.07;8.20;;;;;;;0.79;100.00;98110.34;5009176;28;20686;-68
2021/03/05 03:38:19;;;;;;;9.20;8.30;;;;;;;0.71;100.00;98123.88;5010269;28;20216;-69
2021/03/05 03:40:46;;;;;;;9.97;8.97;;;;;;;0.77;100.00;98120.88;5014444;28;20478;-69
2021/03/05 03:43:13;;;;;;;11.10;9.30;;;;;;;0.66;100.00;98124.16;5012661;28;20340;-69
2021/03/05 03:45:41;;;;;;;10.03;9.07;;;;;;;0.76;100.00;98126.19;5012588;28;20212;-70
2021/03/05 03:48:10;;;;;;;11.03;9.97;;;;;;;0.88;100.00;98127.16;5010053;28;20394;-69
2021/03/05 03:50:40;;;;;;;11.53;10.33;;;;;;;0.80;100.00;98123.28;5013512;28;20223;-69
2021/03/05 03:53:13;;;;;;;9.93;8.93;;;;;;;0.88;100.00;98127.16;5008723;28;20216;-69
2021/03/05 03:55:45;;;;;;;9.83;8.87;;;;;;;0.90;100.00;98130.50;5007073;28;20215;-68
2021/03/05 03:58:14;;;;;;;10.07;9.03;;;;;;;0.95;100.00;98125.88;4988804;28;20201;-67
2021/03/05 04:00:42;;;;;;;9.77;8.73;;;;;;;0.91;100.00;98134.78;5004273;28;20205;-68
2021/03/05 04:03:10;;;;;;;11.13;8.50;;;;;;;0.85;100.00;98141.28;5011535;28;20201;-68
2021/03/05 04:05:38;;;;;;;9.13;6.97;;;;;;;0.79;100.00;98145.09;5009842;28;20208;-67
2021/03/05 04:08:07;;;;;;;11.33;8.70;;;;;;;0.89;100.00;98150.56;5012487;28;20255;-69
2021/03/05 04:10:36;;;;;;;8.17;7.30;;;;;;;0.91;100.00;98143.47;5011840;28;20216;-69
2021/03/05 04:13:04;;;;;;;9.40;7.50;;;;;;;0.93;100.00;98153.81;5011546;28;20234;-69
2021/03/05 04:15:31;;;;;;;9.43;8.27;;;;;;;0.91;100.00;98151.31;5011907;28;20216;-70
2021/03/05 04:17:58;;;;;;;9.37;7.27;;;;;;;0.80;100.00;98152.00;4999587;28;20228;-66
2021/03/05 04:20:26;;;;;;;9.83;8.30;;;;;;;0.72;100.00;98159.47;5012907;28;20968;-69
2021/03/05 04:22:54;;;;;;;10.13;7.83;;;;;;;0.65;100.00;98171.25;5008969;28;20203;-69
2021/03/05 04:25:22;;;;;;;9.37;6.93;;;;;;;0.64;100.00;98173.00;5010454;28;20215;-68
2021/03/05 04:27:49;;;;;;;7.57;6.87;;;;;;;0.60;100.00;98181.13;5012769;28;20267;-69
2021/03/05 04:30:17;;;;;;;8.37;5.83;;;;;;;0.54;100.00;98183.16;5004619;28;20216;-68
2021/03/05 04:32:45;;;;;;;8.40;6.53;;;;;;;0.49;100.00;98177.41;5009659;28;20221;-68
2021/03/05 04:35:12;;;;;;;8.83;7.37;;;;;;;0.47;100.00;98181.06;5012452;28;20239;-69
2021/03/05 04:37:40;;;;;;;7.67;6.83;;;;;;;0.47;100.00;98191.47;5007287;28;20265;-69
2021/03/05 04:40:09;;;;;;;10.43;7.27;;;;;;;0.40;100.00;98194.47;4997152;28;20241;-67
2021/03/05 04:42:36;;;;;;;11.17;9.13;;;;;;;0.46;100.00;98192.41;4997036;28;20211;-68
2021/03/05 04:45:04;;;;;;;9.37;7.70;;;;;;;0.32;100.00;98201.91;5009324;28;20208;-68
2021/03/05 04:47:32;;;;;;;11.40;8.57;;;;;;;0.31;100.00;98209.84;5005675;28;20308;-66
2021/03/05 04:49:59;;;;;;;13.00;8.80;;;;;;;0.26;100.00;98210.97;5009746;28;20208;-65
2021/03/05 04:52:26;;;;;;;10.17;7.40;;;;;;;0.24;100.00;98220.66;5005832;28;20913;-66
2021/03/05 04:54:54;;;;;;;10.00;8.10;;;;;;;0.35;100.00;98221.75;5009034;28;20208;-67
2021/03/05 04:57:21;;;;;;;9.57;8.53;;;;;;;0.30;100.00;98221.19;5011165;28;20248;-67
2021/03/05 04:59:48;;;;;;;12.20;8.27;;;;;;;0.40;100.00;98223.16;4997737;28;20205;-67
2021/03/05 05:02:15;;;;;;;12.10;9.20;;;;;;;0.40;100.00;98227.53;4995696;28;20206;-67
2021/03/05 05:04:43;;;;;;;12.37;9.30;;;;;;;0.43;100.00;98228.19;4997697;28;20241;-66
2021/03/05 05:07:10;;;;;;;12.00;8.90;;;;;;;0.48;100.00;98232.28;4997253;28;20232;-66
2021/03/05 05:09:37;;;;;;;10.70;7.67;;;;;;;0.43;100.00;98238.63;4988091;28;20206;-67
2021/03/05 05:12:04;;;;;;;11.63;8.87;;;;;;;0.49;100.00;98244.38;4997292;28;20224;-69
2021/03/05 05:14:31;;;;;;;12.20;9.30;;;;;;;0.51;100.00;98243.34;5008100;28;20216;-67
2021/03/05 05:16:58;;;;;;;11.67;8.50;;;;;;;0.42;100.00;98239.53;5012386;28;20232;-66
2021/03/05 05:19:26;;;;;;;10.43;9.33;;;;;;;0.45;100.00;98241.09;5007116;28;20216;-69
2021/03/05 05:21:53;;;;;;;11.00;8.53;;;;;;;0.46;100.00;98245.38;5008380;28;20383;-69
2021/03/05 05:24:20;;;;;;;11.90;8.67;;;;;;;0.32;100.00;98254.06;5007425;28;20665;-68
2021/03/05 05:26:48;;;;;;;9.67;8.67;;;;;;;0.19;100.00;98243.56;5006388;28;20235;-69
2021/03/05 05:29:15;;;;;;;11.23;8.83;;;;;;;0.30;100.00;98247.28;4999708;28;20235;-68
2021/03/05 05:31:42;;;;;;;10.27;8.30;;;;;;;0.31;100.00;98254.16;5003237;28;20862;-69
2021/03/05 05:34:09;;;;;;;9.50;8.20;;;;;;;0.30;100.00;98253.31;5005494;28;20208;-68
2021/03/05 05:36:36;;;;;;;9.43;7.97;;;;;;;0.44;100.00;98249.88;5005809;28;20233;-67
2021/03/05 05:39:05;;;;;;;12.30;9.57;;;;;;;0.34;100.00;98252.19;5004942;28;20695;-68
2021/03/05 05:41:33;;;;;;;9.00;7.87;;;;;;;0.40;100.00;98257.06;5011297;28;20573;-69
2021/03/05 05:44:01;;;;;;;10.77;8.40;;;;;;;0.37;100.00;98264.22;5002563;28;20209;-67
2021/03/05 05:46:28;;;;;;;10.00;9.00;;;;;;;0.39;100.00;98270.16;5008816;28;20326;-68
2021/03/05 05:48:55;;;;;;;10.80;8.60;;;;;;;0.40;100.00;98266.63;5009862;28;20208;-69
2021/03/05 05:51:25;;;;;;;11.23;8.90;;;;;;;0.45;100.00;98274.19;5008545;28;20212;-68
2021/03/05 05:53:55;;;;;;;11.67;9.23;;;;;;;0.58;100.00;98277.72;5009906;28;20370;-69
2021/03/05 05:56:24;;;;;;;11.03;8.93;;;;;;;0.54;100.00;98278.84;5006254;28;20224;-69
2021/03/05 05:58:51;;;;;;;11.10;9.70;;;;;;;0.61;100.00;98271.47;5006072;28;20292;-68
2021/03/05 06:01:19;;;;;;;13.10;9.00;;;;;;;0.62;100.00;98283.59;5004056;28;20219;-68
2021/03/05 06:03:46;;;;;;;12.03;8.77;;;;;;;0.52;100.00;98276.31;5010424;28;20272;-69
2021/03/05 06:06:13;;;;;;;10.77;8.83;;;;;;;0.50;100.00;98291.22;5004673;28;20248;-69
2021/03/05 06:08:56;;;;;;;15.30;9.57;;;;;;;0.56;100.00;98290.00;5005368;28;20380;-66
2021/03/05 06:11:31;;;;;;;10.47;9.17;;;;;;;0.55;100.00;98290.94;5006370;28;20385;-66
2021/03/05 06:14:01;;;;;;;11.80;9.10;;;;;;;0.66;100.00;98296.34;4990141;28;20756;-65
2021/03/05 06:16:28;;;;;;;12.27;9.47;;;;;;;0.59;100.00;98300.25;5004545;28;20303;-67
2021/03/05 06:18:57;;;;;;;10.93;8.87;;;;;;;0.64;100.00;98295.59;5008865;28;20262;-67
2021/03/05 06:21:38;;;;;;;13.03;9.30;;;;;;;0.57;100.00;98304.72;5005298;28;20223;-65
2021/03/05 06:24:08;;;;;;;12.03;10.07;;;;;;;0.54;100.00;98305.75;5004929;28;20232;-66
2021/03/05 06:26:50;;;;;;;10.70;8.57;;;;;;;0.55;100.00;98314.41;5005826;28;20279;-66
2021/03/05 06:29:18;;;;;;;11.47;9.13;;;;;;;0.50;100.00;98312.06;5008867;28;20278;-67
2021/03/05 06:31:59;;;;;;;10.53;9.33;;;;;;;0.57;100.00;98320.38;5008481;28;20228;-66
2021/03/05 06:34:28;;;;;;;11.53;9.47;;;;;;;0.70;100.00;98323.09;5006811;28;20304;-65
2021/03/05 06:37:03;;;;;;;13.03;10.17;;;;;;;0.75;100.00;98322.78;5004144;28;20232;-68
2021/03/05 06:39:32;;;;;;;12.20;8.70;;;;;;;0.79;100.00;98332.13;5008256;28;20604;-67
2021/03/05 06:42:02;;;;;;;10.87;8.97;;;;;;;0.75;100.00;98326.25;5011038;28;20205;-66
2021/03/05 06:44:30;;;;;;;15.97;11.63;;;;;;;0.85;100.00;98332.56;5000208;28;20563;-66
2021/03/05 06:46:57;;;;;;;11.83;9.53;;;;;;;0.85;100.00;98336.97;5006042;28;20782;-69
2021/03/05 06:49:27;;;;;;;11.57;9.30;;;;;;;1.04;100.00;98341.03;5001551;28;20264;-70
2021/03/05 06:51:55;;;;;;;10.93;8.73;;;;;;;0.89;100.00;98340.22;5009606;28;20231;-67
2021/03/05 06:54:23;;;;;;;12.87;10.47;;;;;;;0.92;100.00;98343.47;5008882;28;20684;-68
2021/03/05 06:56:51;;;;;;;13.20;8.87;;;;;;;0.99;100.00;98346.56;5004797;28;20236;-69
2021/03/05 06:59:21;;;;;;;11.43;9.43;;;;;;;1.10;100.00;98351.94;5010234;28;20231;-69
2021/03/05 07:01:53;;;;;;;11.20;9.43;;;;;;;1.04;100.00;98344.50;5008409;28;20201;-69
2021/03/05 07:04:22;;;;;;;14.23;9.93;;;;;;;1.07;100.00;98353.91;5009638;28;20205;-69
2021/03/05 07:06:59;;;;;;;12.53;9.70;;;;;;;0.94;100.00;98361.63;5010033;28;20740;-69
2021/03/05 07:09:30;;;;;;;12.10;10.73;;;;;;;0.96;100.00;98359.81;5003953;28;20213;-69
2021/03/05 07:11:58;;;;;;;11.40;9.53;;;;;;;0.93;100.00;98360.81;5010149;28;20228;-69
2021/03/05 07:14:28;;;;;;;13.97;10.30;;;;;;;0.99;100.00;98367.44;5000236;28;20244;-69
2021/03/05 07:16:56;;;;;;;13.07;10.43;;;;;;;0.91;100.00;98370.50;5002309;28;20286;-71
2021/03/05 07:19:25;;;;;;;13.07;10.03;;;;;;;0.97;100.00;98372.75;5009767;28;20201;-68
2021/03/05 07:21:53;;;;;;;10.87;8.60;;;;;;;0.91;100.00;98383.56;5004700;28;20204;-70
2021/03/05 07:24:21;;;;;;;15.03;9.93;;;;;;;0.98;100.00;98387.47;5004699;28;20666;-68
2021/03/05 07:27:00;;;;;;;14.47;10.40;;;;;;;0.98;100.00;98382.25;5007790;28;20744;-69
2021/03/05 07:29:29;;;;;;;12.60;9.50;;;;;;;1.12;100.00;98388.38;5000160;28;20205;-68
2021/03/05 07:31:59;;;;;;;15.63;11.30;;;;;;;1.21;100.00;98397.44;5002269;28;20683;-67
2021/03/05 07:34:29;;;;;;;11.80;10.03;;;;;;;1.11;100.00;98398.00;5006864;28;20205;-67
2021/03/05 07:36:58;;;;;;;14.33;10.97;;;;;;;1.15;100.00;98403.88;5002231;28;20243;-67
2021/03/05 07:39:27;;;;;;;12.57;9.43;;;;;;;1.23;100.00;98408.63;5010062;28;20637;-68
2021/03/05 07:41:56;;;;;;;16.03;10.70;;;;;;;1.18;100.00;98410.66;5006132;28;20665;-69
2021/03/05 07:44:25;;;;;;;13.57;9.93;;;;;;;1.27;100.00;98415.31;5008451;28;20208;-67
2021/03/05 07:46:54;;;;;;;12.57;10.30;;;;;;;1.35;100.00;98412.25;5009059;28;20708;-68
2021/03/05 07:49:28;;;;;;;14.23;10.63;;;;;;;1.42;100.00;98411.78;5006139;28;20621;-70
2021/03/05 07:51:58;;;;;;;15.37;11.43;;;;;;;1.37;100.00;98413.84;4999165;28;20231;-70
2021/03/05 07:54:48;;;;;;;13.03;10.83;;;;;;;1.34;100.00;98411.41;5008362;28;20588;-70
2021/03/05 07:57:48;;;;;;;17.60;12.80;;;;;;;1.18;100.00;98421.13;5003510;28;20228;-67
2021/03/05 08:00:34;;;;;;;15.43;11.23;;;;;;;1.28;100.00;98420.47;4998779;28;20677;-67
2021/03/05 08:03:03;;;;;;;18.13;12.57;;;;;;;1.36;100.00;98424.38;5000868;28;20213;-69
2021/03/05 08:05:38;;;;;;;19.43;12.53;;;;;;;1.36;100.00;98424.38;5002841;28;20205;-69
2021/03/05 08:08:11;;;;;;;16.93;12.10;;;;;;;1.40;100.00;98428.47;5005794;28;20466;-67
2021/03/05 08:10:39;;;;;;;17.37;11.43;;;;;;;1.33;100.00;98432.41;5005476;28;20212;-68
2021/03/05 08:13:43;;;;;;;14.60;11.90;;;;;;;1.36;100.00;98437.44;5007451;28;20231;-69
2021/03/05 08:16:39;;;;;;;15.67;11.77;;;;;;;1.49;100.00;98434.91;5009324;28;20623;-68
2021/03/05 08:19:47;;;;;;;19.17;13.47;;;;;;;1.62;100.00;98434.97;4998530;28;20210;-69
2021/03/05 08:22:17;;;;;;;15.20;11.47;;;;;;;1.67;100.00;98441.56;5003286;28;20201;-67
2021/03/05 08:24:44;;;;;;;17.43;12.83;;;;;;;1.64;100.00;98443.56;5005934;28;20204;-68
2021/03/05 08:27:19;;;;;;;16.27;11.47;;;;;;;1.78;100.00;98450.53;5011549;28;20519;-69
2021/03/05 08:30:03;;;;;;;17.60;12.63;;;;;;;1.67;100.00;98445.97;5002755;28;20219;-68
2021/03/05 08:32:50;;;;;;;17.70;13.27;;;;;;;1.68;100.00;98453.69;4998222;28;21220;-68
2021/03/05 08:35:19;;;;;;;18.20;12.80;;;;;;;1.65;100.00;98456.50;5004235;28;20287;-68
2021/03/05 08:38:01;;;;;;;20.63;13.27;;;;;;;1.56;100.00;98457.09;5006262;28;20490;-68
2021/03/05 08:40:30;;;;;;;16.17;12.77;;;;;;;1.69;100.00;98457.97;5011164;28;20568;-67
2021/03/05 08:42:58;;;;;;;15.07;11.90;;;;;;;1.64;100.00;98459.22;5010735;28;20209;-68
2021/03/05 08:45:27;;;;;;;16.53;11.97;;;;;;;1.81;100.00;98460.78;5007356;28;20324;-68
2021/03/05 08:47:57;;;;;;;16.10;11.50;;;;;;;1.81;100.00;98464.22;5012660;28;20228;-70
2021/03/05 08:50:30;;;;;;;15.63;11.40;;;;;;;1.85;100.00;98464.88;5013673;28;20204;-68
2021/03/05 08:52:59;;;;;;;16.87;11.77;;;;;;;1.98;100.00;98462.31;5011982;28;20220;-68
2021/03/05 08:55:29;;;;;;;15.17;11.83;;;;;;;1.95;100.00;98465.13;5013313;28;20209;-68
2021/03/05 08:57:56;;;;;;;15.30;11.13;;;;;;;1.86;100.00;98469.16;5004477;28;20705;-69
2021/03/05 09:00:28;;;;;;;14.57;11.87;;;;;;;2.01;100.00;98468.19;5008517;28;20200;-69
2021/03/05 09:03:04;;;;;;;14.53;12.07;;;;;;;1.97;100.00;98474.53;5003172;28;20201;-69
2021/03/05 09:05:33;;;;;;;15.83;13.13;;;;;;;2.10;100.00;98473.78;5009020;28;20420;-68
2021/03/05 09:08:02;;;;;;;15.80;11.57;;;;;;;2.03;100.00;98479.38;5012501;28;20319;-69
2021/03/05 09:10:41;;;;;;;12.27;10.50;;;;;;;1.99;100.00;98477.91;5009528;28;20204;-69
2021/03/05 09:13:08;;;;;;;13.80;11.00;;;;;;;2.00;100.00;98474.34;5010786;28;20235;-68
2021/03/05 09:15:41;;;;;;;14.90;10.70;;;;;;;1.86;100.00;98470.00;5012432;28;20606;-69
2021/03/05 09:18:10;;;;;;;14.80;10.90;;;;;;;2.00;100.00;98486.59;5002167;28;20232;-68
2021/03/05 09:20:43;;;;;;;14.47;11.67;;;;;;;1.97;100.00;98482.38;5004088;28;20245;-68
2021/03/05 09:23:16;;;;;;;12.63;10.67;;;;;;;2.02;100.00;98489.94;5002948;28;20208;-67
2021/03/05 09:25:50;;;;;;;10.73;9.20;;;;;;;2.16;100.00;98487.28;5003488;28;20201;-68
2021/03/05 09:28:20;;;;;;;10.70;9.03;;;;;;;2.45;100.00;98486.31;5003441;28;20211;-68
2021/03/05 09:30:48;;;;;;;10.70;8.93;;;;;;;2.42;100.00;98484.75;5004247;28;20703;-67
2021/03/05 09:33:16;;;;;;;10.30;8.93;;;;;;;2.46;100.00;98493.22;5011387;28;20597;-67
2021/03/05 09:35:43;;;;;;;10.27;9.27;;;;;;;2.54;100.00;98497.97;5006208;28;20531;-67
2021/03/05 09:38:16;;;;;;;10.57;9.47;;;;;;;2.48;100.00;98496.63;5002506;28;20236;-68
2021/03/05 09:40:43;;;;;;;11.63;10.27;;;;;;;2.40;100.00;98497.09;5000866;28;20208;-69
2021/03/05 09:43:16;;;;;;;9.63;8.47;;;;;;;2.41;100.00;98501.41;5007712;28;20208;-68
2021/03/05 09:45:46;;;;;;;11.57;9.33;;;;;;;2.68;100.00;98497.91;5005799;28;20200;-68
2021/03/05 09:48:27;;;;;;;11.17;8.40;;;;;;;2.78;99.08;98502.53;5000758;28;20555;-67
2021/03/05 09:50:58;;;;;;;9.83;8.00;;;;;;;2.66;99.69;98505.03;5008291;28;20212;-69
2021/03/05 09:53:31;;;;;;;8.63;7.73;;;;;;;2.58;97.24;98502.91;5007863;28;20224;-68
2021/03/05 09:56:01;;;;;;;10.73;8.67;;;;;;;2.95;96.40;98504.84;5005172;28;20555;-68
2021/03/05 09:58:29;;;;;;;7.60;6.90;;;;;;;3.13;93.71;98515.03;5005975;28;20468;-68
2021/03/05 10:00:56;;;;;;;8.30;7.40;;;;;;;2.98;94.63;98514.28;5005810;28;20204;-66
2021/03/05 10:03:24;;;;;;;7.73;7.03;;;;;;;2.94;94.20;98518.06;5000462;28;20252;-66
2021/03/05 10:05:53;;;;;;;7.90;6.83;;;;;;;2.81;91.62;98518.84;5008196;28;20204;-67
2021/03/05 10:08:21;;;;;;;9.60;7.63;;;;;;;2.98;92.84;98525.59;5011137;28;20232;-68
2021/03/05 10:11:00;;;;;;;8.90;8.00;;;;;;;3.07;95.12;98518.09;5003864;28;20557;-68
2021/03/05 10:13:45;;;;;;;9.17;8.13;;;;;;;3.25;93.07;98529.91;5006181;28;20483;-67
2021/03/05 10:16:17;;;;;;;8.30;7.50;;;;;;;3.25;93.65;98529.09;5007649;28;20223;-67
2021/03/05 10:18:45;;;;;;;7.70;6.63;;;;;;;3.45;91.25;98531.19;5007731;28;20201;-67
2021/03/05 10:21:12;;;;;;;8.70;7.80;;;;;;;3.24;90.96;98537.91;4998467;28;20211;-67
2021/03/05 10:23:40;;;;;;;8.30;7.37;;;;;;;3.20;92.08;98539.88;5003347;28;20201;-70
2021/03/05 10:26:29;;;;;;;8.20;7.40;;;;;;;3.14;91.09;98546.34;5008389;28;20213;-69
2021/03/05 10:28:59;;;;;;;8.03;7.27;;;;;;;3.15;89.00;98552.44;5001022;28;20212;-67
2021/03/05 10:31:47;;;;;;;8.87;7.23;;;;;;;3.41;90.91;98549.81;5003049;28;20208;-67
2021/03/05 10:34:28;;;;;;;8.50;7.37;;;;;;;3.64;89.95;98548.25;5007458;28;20768;-68
2021/03/05 10:36:58;;;;;;;7.67;6.93;;;;;;;3.61;88.13;98556.34;5001497;28;20239;-67
2021/03/05 10:39:26;;;;;;;9.23;7.77;;;;;;;3.33;90.33;98556.44;4998339;28;20223;-70
2021/03/05 10:41:59;;;;;;;8.83;7.33;;;;;;;3.17;91.18;98559.25;5003232;28;20211;-68
2021/03/05 10:44:28;;;;;;;7.43;6.73;;;;;;;3.00;91.08;98559.53;5005647;28;20240;-69
2021/03/05 10:46:56;;;;;;;7.57;6.83;;;;;;;2.92;95.15;98565.28;5004189;28;20307;-68
2021/03/05 10:49:24;;;;;;;9.63;8.43;;;;;;;2.71;98.58;98565.75;5005646;28;20212;-69
2021/03/05 10:51:51;;;;;;;8.80;7.70;;;;;;;2.75;99.66;98575.09;5003120;28;20200;-67
2021/03/05 10:54:18;;;;;;;8.30;7.40;;;;;;;2.57;100.00;98594.59;5001487;28;20263;-67
2021/03/05 10:56:48;;;;;;;7.80;5.07;;;;;;;1.94;98.34;98599.41;5005813;28;20229;-69
2021/03/05 10:59:17;;;;;;;6.13;5.57;;;;;;;1.75;100.00;98612.75;5005696;28;20204;-68
2021/03/05 11:01:44;;;;;;;5.20;4.70;;;;;;;1.53;100.00;98611.41;5008199;28;20212;-68
2021/03/05 11:04:12;;;;;;;4.90;4.20;;;;;;;1.30;100.00;98621.44;5006708;28;20197;-69
2021/03/05 11:06:39;;;;;;;6.80;6.20;;;;;;;1.36;100.00;98617.63;4997382;28;20713;-70
2021/03/05 11:09:07;;;;;;;5.90;5.40;;;;;;;1.37;100.00;98624.53;5004473;28;20299;-69
2021/03/05 11:11:34;;;;;;;7.07;6.43;;;;;;;1.42;100.00;98625.09;5002744;28;20208;-68
2021/03/05 11:14:01;;;;;;;7.40;6.03;;;;;;;1.39;100.00;98631.34;4997042;28;20725;-69
2021/03/05 11:16:29;;;;;;;7.13;6.17;;;;;;;1.39;100.00;98623.53;5000412;28;20748;-69
2021/03/05 11:18:57;;;;;;;7.47;6.63;;;;;;;1.62;100.00;98620.47;5002505;28;20197;-69
2021/03/05 11:21:24;;;;;;;7.70;6.83;;;;;;;1.64;100.00;98629.88;5002110;28;20229;-68
2021/03/05 11:23:53;;;;;;;7.73;6.90;;;;;;;1.88;100.00;98624.94;4999652;28;20304;-69
2021/03/05 11:26:21;;;;;;;6.73;5.23;;;;;;;2.15;100.00;98637.28;4999479;28;20327;-69
2021/03/05 11:28:48;;;;;;;6.07;5.20;;;;;;;2.11;93.33;98640.19;4994649;28;20243;-69
2021/03/05 11:31:15;;;;;;;5.20;4.70;;;;;;;2.13;89.12;98644.38;4996277;28;20208;-69
2021/03/05 11:33:44;;;;;;;4.73;4.33;;;;;;;2.18;85.85;98646.72;4996834;28;20232;-69
2021/03/05 11:36:12;;;;;;;4.33;3.97;;;;;;;2.17;82.03;98650.25;5001322;28;20625;-69
2021/03/05 11:38:39;;;;;;;4.87;4.43;;;;;;;2.15;83.13;98652.97;5002327;28;20201;-69
2021/03/05 11:41:07;;;;;;;4.70;4.30;;;;;;;2.45;79.97;98638.91;5001180;28;20216;-69